UAL105 KLAX-KSFO
Flight info
| Callsign | UAL105 |
|---|---|
| Flight time | 0h 53m |
| Altitude | 34000 |
| Route | SUMMR2 STOKD SERFR SERFR4 |
| Aircraft | B77W/H-SDE1E2E3FGHIJ2J3J4J5M1RWXY/LB1D1 |
Departure
| Time | 2026-05-06 04:14 |
|---|---|
| Airport | Los Angeles International Airport (KLAX) |
Arrival
| Time | 2026-05-06 05:07 |
|---|---|
| Airport | San Francisco International Airport (KSFO) |
| Time | Latitude | Longitude | Altitude | Speed | Heading |
|---|---|---|---|---|---|
| 2026-05-06 04:00 | 33.94526 | -118.41147 | 112 ft | 0 kts | 99° |
| 2026-05-06 04:06 | 33.94528 | -118.41160 | 106 ft | 2 kts | 95° |
| 2026-05-06 04:06 | 33.94529 | -118.41180 | 129 ft | 2 kts | 90° |
| 2026-05-06 04:06 | 33.94528 | -118.41199 | 125 ft | 2 kts | 81° |
| 2026-05-06 04:07 | 33.94524 | -118.41218 | 125 ft | 2 kts | 67° |
| 2026-05-06 04:07 | 33.94516 | -118.41235 | 125 ft | 2 kts | 46° |
| 2026-05-06 04:07 | 33.94503 | -118.41248 | 125 ft | 2 kts | 24° |
| 2026-05-06 04:07 | 33.94488 | -118.41254 | 125 ft | 2 kts | 5° |
| 2026-05-06 04:08 | 33.94479 | -118.41254 | 125 ft | 0 kts | 354° |
| 2026-05-06 04:09 | 33.94485 | -118.41255 | 130 ft | 3 kts | 353° |
| 2026-05-06 04:09 | 33.94547 | -118.41264 | 128 ft | 14 kts | 353° |
| 2026-05-06 04:09 | 33.94648 | -118.41278 | 128 ft | 15 kts | 353° |
| 2026-05-06 04:10 | 33.94749 | -118.41289 | 127 ft | 14 kts | 8° |
| 2026-05-06 04:10 | 33.94803 | -118.41195 | 126 ft | 15 kts | 77° |
| 2026-05-06 04:10 | 33.94816 | -118.41072 | 127 ft | 15 kts | 83° |
| 2026-05-06 04:10 | 33.94829 | -118.40949 | 127 ft | 15 kts | 83° |
| 2026-05-06 04:11 | 33.94841 | -118.40827 | 130 ft | 15 kts | 83° |
| 2026-05-06 04:11 | 33.94854 | -118.40704 | 130 ft | 15 kts | 83° |
| 2026-05-06 04:11 | 33.94867 | -118.40581 | 129 ft | 15 kts | 83° |
| 2026-05-06 04:11 | 33.94879 | -118.40458 | 127 ft | 15 kts | 83° |
| 2026-05-06 04:12 | 33.94892 | -118.40335 | 128 ft | 15 kts | 82° |
| 2026-05-06 04:12 | 33.94904 | -118.40214 | 126 ft | 15 kts | 83° |
| 2026-05-06 04:12 | 33.94918 | -118.40091 | 126 ft | 15 kts | 76° |
| 2026-05-06 04:12 | 33.94993 | -118.40069 | 126 ft | 12 kts | 349° |
| 2026-05-06 04:13 | 33.95022 | -118.40156 | 127 ft | 12 kts | 264° |
| 2026-05-06 04:13 | 33.95014 | -118.40226 | 127 ft | 12 kts | 262° |
| 2026-05-06 04:13 | 33.94982 | -118.40552 | 128 ft | 80 kts | 263° |
| 2026-05-06 04:13 | 33.94877 | -118.41566 | 124 ft | 159 kts | 263° |
| 2026-05-06 04:14 | 33.94734 | -118.42988 | 673 ft | 179 kts | 262° |
| 2026-05-06 04:14 | 33.94588 | -118.44451 | 1750 ft | 173 kts | 263° |
| 2026-05-06 04:14 | 33.94445 | -118.45923 | 2545 ft | 182 kts | 264° |
| 2026-05-06 04:14 | 33.94310 | -118.47536 | 2964 ft | 209 kts | 267° |
| 2026-05-06 04:15 | 33.94250 | -118.49430 | 3268 ft | 242 kts | 268° |
| 2026-05-06 04:15 | 33.94195 | -118.51519 | 4026 ft | 255 kts | 266° |
| 2026-05-06 04:15 | 33.94043 | -118.53655 | 4756 ft | 258 kts | 264° |
| 2026-05-06 04:15 | 33.93856 | -118.55842 | 5037 ft | 266 kts | 264° |
| 2026-05-06 04:16 | 33.93671 | -118.58080 | 5558 ft | 271 kts | 265° |
| 2026-05-06 04:16 | 33.93489 | -118.60334 | 6676 ft | 270 kts | 266° |
| 2026-05-06 04:16 | 33.93308 | -118.62612 | 7563 ft | 277 kts | 267° |
| 2026-05-06 04:16 | 33.93122 | -118.64965 | 8427 ft | 286 kts | 267° |
| 2026-05-06 04:17 | 33.92937 | -118.67376 | 9269 ft | 294 kts | 267° |
| 2026-05-06 04:17 | 33.92744 | -118.69864 | 10100 ft | 302 kts | 267° |
| 2026-05-06 04:17 | 33.92544 | -118.72445 | 10680 ft | 321 kts | 267° |
| 2026-05-06 04:17 | 33.92328 | -118.75249 | 10925 ft | 352 kts | 266° |
| 2026-05-06 04:18 | 33.92096 | -118.78218 | 11584 ft | 366 kts | 266° |
| 2026-05-06 04:18 | 33.91850 | -118.81329 | 12013 ft | 371 kts | 266° |
| 2026-05-06 04:18 | 33.91641 | -118.84407 | 11999 ft | 372 kts | 270° |
| 2026-05-06 04:18 | 33.91685 | -118.87508 | 12007 ft | 370 kts | 275° |
| 2026-05-06 04:19 | 33.91847 | -118.90601 | 12006 ft | 369 kts | 275° |
| 2026-05-06 04:19 | 33.91991 | -118.93686 | 12002 ft | 369 kts | 275° |
| 2026-05-06 04:19 | 33.92099 | -118.96781 | 12004 ft | 369 kts | 274° |
| 2026-05-06 04:19 | 33.92200 | -118.99857 | 11995 ft | 364 kts | 276° |
| 2026-05-06 04:20 | 33.92766 | -119.02784 | 11991 ft | 358 kts | 297° |
| 2026-05-06 04:20 | 33.94056 | -119.05322 | 12011 ft | 359 kts | 306° |
| 2026-05-06 04:20 | 33.95414 | -119.07839 | 12011 ft | 364 kts | 304° |
| 2026-05-06 04:20 | 33.96764 | -119.10423 | 12009 ft | 363 kts | 304° |
| 2026-05-06 04:21 | 33.98099 | -119.13007 | 12006 ft | 362 kts | 304° |
| 2026-05-06 04:21 | 33.99422 | -119.15574 | 12001 ft | 361 kts | 304° |
| 2026-05-06 04:21 | 34.00772 | -119.18121 | 11994 ft | 354 kts | 308° |
| 2026-05-06 04:21 | 34.02536 | -119.20153 | 12073 ft | 353 kts | 328° |
| 2026-05-06 04:22 | 34.04601 | -119.21809 | 12878 ft | 364 kts | 328° |
| 2026-05-06 04:22 | 34.06701 | -119.23556 | 14059 ft | 369 kts | 327° |
| 2026-05-06 04:22 | 34.08810 | -119.25348 | 15159 ft | 371 kts | 327° |
| 2026-05-06 04:23 | 34.13069 | -119.29000 | 17327 ft | 381 kts | 328° |
| 2026-05-06 04:23 | 34.15256 | -119.30883 | 18344 ft | 388 kts | 328° |
| 2026-05-06 04:23 | 34.17474 | -119.32795 | 19262 ft | 393 kts | 328° |
| 2026-05-06 04:23 | 34.19715 | -119.34728 | 20201 ft | 398 kts | 329° |
| 2026-05-06 04:24 | 34.21981 | -119.36684 | 21127 ft | 402 kts | 329° |
| 2026-05-06 04:24 | 34.24270 | -119.38660 | 22044 ft | 407 kts | 329° |
| 2026-05-06 04:24 | 34.26560 | -119.40638 | 22918 ft | 412 kts | 330° |
| 2026-05-06 04:24 | 34.28909 | -119.42669 | 23771 ft | 417 kts | 330° |
| 2026-05-06 04:25 | 34.31282 | -119.44723 | 24478 ft | 422 kts | 330° |
| 2026-05-06 04:25 | 34.33690 | -119.46809 | 25182 ft | 427 kts | 331° |
| 2026-05-06 04:25 | 34.36124 | -119.48918 | 25856 ft | 432 kts | 331° |
| 2026-05-06 04:25 | 34.38584 | -119.51051 | 26523 ft | 437 kts | 332° |
| 2026-05-06 04:26 | 34.41069 | -119.53218 | 27194 ft | 443 kts | 331° |
| 2026-05-06 04:26 | 34.43444 | -119.55653 | 27801 ft | 453 kts | 324° |
| 2026-05-06 04:26 | 34.45705 | -119.58374 | 28426 ft | 462 kts | 322° |
| 2026-05-06 04:26 | 34.47930 | -119.61214 | 29016 ft | 468 kts | 321° |
| 2026-05-06 04:27 | 34.50160 | -119.64104 | 29710 ft | 471 kts | 322° |
| 2026-05-06 04:27 | 34.52402 | -119.66999 | 30487 ft | 469 kts | 322° |
| 2026-05-06 04:27 | 34.54605 | -119.69808 | 31376 ft | 462 kts | 322° |
| 2026-05-06 04:27 | 34.56828 | -119.72596 | 32225 ft | 457 kts | 322° |
| 2026-05-06 04:28 | 34.59038 | -119.75340 | 32984 ft | 454 kts | 322° |
| 2026-05-06 04:28 | 34.61249 | -119.78066 | 33658 ft | 452 kts | 322° |
| 2026-05-06 04:28 | 34.63458 | -119.80786 | 34052 ft | 453 kts | 322° |
| 2026-05-06 04:29 | 34.67871 | -119.86241 | 34053 ft | 451 kts | 322° |
| 2026-05-06 04:29 | 34.72268 | -119.91692 | 34046 ft | 450 kts | 322° |
| 2026-05-06 04:30 | 34.76632 | -119.97105 | 34063 ft | 451 kts | 323° |
| 2026-05-06 04:30 | 34.81031 | -120.02573 | 34083 ft | 453 kts | 323° |
| 2026-05-06 04:31 | 34.85441 | -120.08073 | 34096 ft | 453 kts | 323° |
| 2026-05-06 04:31 | 34.89846 | -120.13568 | 34077 ft | 453 kts | 322° |
| 2026-05-06 04:32 | 34.94217 | -120.19029 | 34096 ft | 453 kts | 322° |
| 2026-05-06 04:32 | 34.98605 | -120.24526 | 34097 ft | 452 kts | 322° |
| 2026-05-06 04:33 | 35.02990 | -120.30033 | 34107 ft | 452 kts | 322° |
| 2026-05-06 04:33 | 35.07380 | -120.35537 | 34087 ft | 452 kts | 322° |
| 2026-05-06 04:34 | 35.11844 | -120.40899 | 34070 ft | 448 kts | 325° |
| 2026-05-06 04:34 | 35.16464 | -120.45994 | 34106 ft | 448 kts | 326° |
| 2026-05-06 04:35 | 35.21071 | -120.51081 | 34102 ft | 449 kts | 325° |
| 2026-05-06 04:35 | 35.25688 | -120.56252 | 34076 ft | 449 kts | 325° |
| 2026-05-06 04:36 | 35.30274 | -120.61415 | 34095 ft | 447 kts | 325° |
| 2026-05-06 04:36 | 35.34072 | -120.65701 | 34092 ft | 446 kts | 325° |
| 2026-05-06 04:37 | 35.39363 | -120.71683 | 34084 ft | 444 kts | 325° |
| 2026-05-06 04:37 | 35.43895 | -120.76807 | 34096 ft | 444 kts | 325° |
| 2026-05-06 04:38 | 35.47714 | -120.81125 | 34100 ft | 447 kts | 325° |
| 2026-05-06 04:38 | 35.52480 | -120.85963 | 34114 ft | 442 kts | 331° |
| 2026-05-06 04:39 | 35.57420 | -120.90395 | 34075 ft | 443 kts | 331° |
| 2026-05-06 04:39 | 35.62380 | -120.94886 | 34093 ft | 443 kts | 330° |
| 2026-05-06 04:40 | 35.67291 | -120.99430 | 34084 ft | 440 kts | 330° |
| 2026-05-06 04:40 | 35.72172 | -121.03987 | 34086 ft | 438 kts | 330° |
| 2026-05-06 04:41 | 35.77019 | -121.08520 | 34089 ft | 436 kts | 330° |
| 2026-05-06 04:41 | 35.81846 | -121.13037 | 34095 ft | 435 kts | 330° |
| 2026-05-06 04:42 | 35.86610 | -121.17506 | 34084 ft | 424 kts | 330° |
| 2026-05-06 04:42 | 35.88921 | -121.19682 | 34078 ft | 412 kts | 330° |
| 2026-05-06 04:42 | 35.91177 | -121.21805 | 33790 ft | 404 kts | 330° |
| 2026-05-06 04:42 | 35.93400 | -121.23892 | 33467 ft | 398 kts | 330° |
| 2026-05-06 04:43 | 35.95597 | -121.25954 | 33068 ft | 394 kts | 330° |
| 2026-05-06 04:43 | 35.97766 | -121.27990 | 32643 ft | 390 kts | 330° |
| 2026-05-06 04:43 | 35.99894 | -121.29991 | 32226 ft | 387 kts | 330° |
| 2026-05-06 04:43 | 36.02030 | -121.32001 | 31835 ft | 385 kts | 330° |
| 2026-05-06 04:44 | 36.04153 | -121.34000 | 31409 ft | 382 kts | 330° |
| 2026-05-06 04:44 | 36.06258 | -121.35986 | 30998 ft | 380 kts | 330° |
| 2026-05-06 04:44 | 36.08397 | -121.37880 | 30572 ft | 375 kts | 333° |
| 2026-05-06 04:44 | 36.10588 | -121.39611 | 30166 ft | 372 kts | 335° |
| 2026-05-06 04:45 | 36.12781 | -121.41278 | 29700 ft | 369 kts | 335° |
| 2026-05-06 04:45 | 36.14962 | -121.42930 | 29257 ft | 365 kts | 335° |
| 2026-05-06 04:45 | 36.17113 | -121.44568 | 28863 ft | 362 kts | 335° |
| 2026-05-06 04:45 | 36.19248 | -121.46207 | 28434 ft | 360 kts | 335° |
| 2026-05-06 04:46 | 36.21371 | -121.47853 | 27990 ft | 358 kts | 334° |
| 2026-05-06 04:46 | 36.23471 | -121.49491 | 27604 ft | 355 kts | 334° |
| 2026-05-06 04:46 | 36.25529 | -121.51094 | 27209 ft | 353 kts | 334° |
| 2026-05-06 04:46 | 36.27596 | -121.52709 | 26791 ft | 351 kts | 334° |
| 2026-05-06 04:47 | 36.29656 | -121.54322 | 26418 ft | 349 kts | 334° |
| 2026-05-06 04:47 | 36.31709 | -121.55927 | 26017 ft | 348 kts | 334° |
| 2026-05-06 04:47 | 36.33749 | -121.57522 | 25645 ft | 347 kts | 334° |
| 2026-05-06 04:47 | 36.35787 | -121.59118 | 25233 ft | 346 kts | 333° |
| 2026-05-06 04:48 | 36.37822 | -121.60714 | 24840 ft | 345 kts | 333° |
| 2026-05-06 04:48 | 36.39847 | -121.62303 | 24445 ft | 344 kts | 333° |
| 2026-05-06 04:48 | 36.41865 | -121.63889 | 24054 ft | 343 kts | 333° |
| 2026-05-06 04:48 | 36.43881 | -121.65472 | 23656 ft | 342 kts | 333° |
| 2026-05-06 04:49 | 36.45893 | -121.67053 | 23272 ft | 339 kts | 333° |
| 2026-05-06 04:49 | 36.47878 | -121.68615 | 22935 ft | 335 kts | 333° |
| 2026-05-06 04:49 | 36.49839 | -121.70159 | 22535 ft | 333 kts | 333° |
| 2026-05-06 04:49 | 36.51783 | -121.71694 | 22174 ft | 330 kts | 333° |
| 2026-05-06 04:50 | 36.53718 | -121.73221 | 21775 ft | 329 kts | 332° |
| 2026-05-06 04:50 | 36.55622 | -121.74726 | 21395 ft | 327 kts | 332° |
| 2026-05-06 04:50 | 36.57543 | -121.76245 | 20997 ft | 326 kts | 332° |
| 2026-05-06 04:50 | 36.59453 | -121.77757 | 20617 ft | 324 kts | 332° |
| 2026-05-06 04:51 | 36.61356 | -121.79265 | 20227 ft | 323 kts | 332° |
| 2026-05-06 04:51 | 36.63249 | -121.80764 | 19840 ft | 322 kts | 332° |
| 2026-05-06 04:51 | 36.65135 | -121.82260 | 19464 ft | 321 kts | 332° |
| 2026-05-06 04:51 | 36.67016 | -121.83752 | 19083 ft | 320 kts | 332° |
| 2026-05-06 04:52 | 36.68890 | -121.85239 | 18704 ft | 319 kts | 332° |
| 2026-05-06 04:52 | 36.70768 | -121.86730 | 18292 ft | 319 kts | 332° |
| 2026-05-06 04:52 | 36.72637 | -121.88215 | 17856 ft | 318 kts | 332° |
| 2026-05-06 04:52 | 36.74561 | -121.89571 | 17380 ft | 314 kts | 343° |
| 2026-05-06 04:53 | 36.76617 | -121.90225 | 16976 ft | 306 kts | 352° |
| 2026-05-06 04:53 | 36.78697 | -121.90758 | 16587 ft | 305 kts | 351° |
| 2026-05-06 04:53 | 36.80767 | -121.91304 | 16207 ft | 304 kts | 351° |
| 2026-05-06 04:53 | 36.82829 | -121.91860 | 15824 ft | 302 kts | 351° |
| 2026-05-06 04:54 | 36.84880 | -121.92422 | 15443 ft | 301 kts | 351° |
| 2026-05-06 04:54 | 36.86921 | -121.92987 | 15081 ft | 300 kts | 351° |
| 2026-05-06 04:54 | 36.88958 | -121.93554 | 14706 ft | 299 kts | 351° |
| 2026-05-06 04:54 | 36.90986 | -121.94120 | 14348 ft | 298 kts | 351° |
| 2026-05-06 04:55 | 36.93013 | -121.94687 | 13985 ft | 298 kts | 351° |
| 2026-05-06 04:55 | 36.95035 | -121.95255 | 13579 ft | 297 kts | 350° |
| 2026-05-06 04:55 | 36.97033 | -121.95941 | 13193 ft | 297 kts | 346° |
| 2026-05-06 04:55 | 36.99006 | -121.96717 | 12812 ft | 296 kts | 346° |
| 2026-05-06 04:56 | 37.00966 | -121.97503 | 12443 ft | 295 kts | 346° |
| 2026-05-06 04:56 | 37.02915 | -121.98282 | 12083 ft | 294 kts | 346° |
| 2026-05-06 04:56 | 37.04860 | -121.99055 | 11727 ft | 292 kts | 346° |
| 2026-05-06 04:56 | 37.06775 | -121.99812 | 11368 ft | 291 kts | 346° |
| 2026-05-06 04:57 | 37.08708 | -122.00572 | 11015 ft | 290 kts | 346° |
| 2026-05-06 04:57 | 37.10629 | -122.01325 | 10666 ft | 289 kts | 346° |
| 2026-05-06 04:57 | 37.12558 | -122.02080 | 10299 ft | 289 kts | 346° |
| 2026-05-06 04:57 | 37.14451 | -122.02823 | 10149 ft | 281 kts | 346° |
| 2026-05-06 04:58 | 37.16297 | -122.03546 | 9983 ft | 274 kts | 346° |
| 2026-05-06 04:58 | 37.18106 | -122.04254 | 9667 ft | 272 kts | 346° |
| 2026-05-06 04:58 | 37.19893 | -122.04954 | 9329 ft | 266 kts | 346° |
| 2026-05-06 04:58 | 37.21659 | -122.05648 | 9023 ft | 265 kts | 346° |
| 2026-05-06 04:59 | 37.23425 | -122.06339 | 8698 ft | 266 kts | 346° |
| 2026-05-06 04:59 | 37.25193 | -122.07030 | 8365 ft | 265 kts | 345° |
| 2026-05-06 04:59 | 37.26948 | -122.07718 | 8085 ft | 264 kts | 345° |
| 2026-05-06 04:59 | 37.28681 | -122.08400 | 7750 ft | 265 kts | 345° |
| 2026-05-06 05:00 | 37.30439 | -122.09093 | 7401 ft | 265 kts | 345° |
| 2026-05-06 05:00 | 37.32201 | -122.09787 | 7067 ft | 265 kts | 344° |
| 2026-05-06 05:00 | 37.33964 | -122.10482 | 6725 ft | 266 kts | 344° |
| 2026-05-06 05:00 | 37.35729 | -122.11178 | 6362 ft | 266 kts | 344° |
| 2026-05-06 05:01 | 37.37503 | -122.11877 | 5976 ft | 267 kts | 344° |
| 2026-05-06 05:01 | 37.39288 | -122.12515 | 5629 ft | 266 kts | 346° |
| 2026-05-06 05:01 | 37.41080 | -122.13106 | 5278 ft | 265 kts | 346° |
| 2026-05-06 05:01 | 37.42860 | -122.13691 | 4967 ft | 264 kts | 346° |
| 2026-05-06 05:02 | 37.44630 | -122.14277 | 4654 ft | 262 kts | 345° |
| 2026-05-06 05:02 | 37.46386 | -122.14862 | 4351 ft | 260 kts | 345° |
| 2026-05-06 05:02 | 37.48125 | -122.15446 | 4050 ft | 258 kts | 345° |
| 2026-05-06 05:02 | 37.49850 | -122.16025 | 3779 ft | 255 kts | 344° |
| 2026-05-06 05:03 | 37.51554 | -122.16598 | 3529 ft | 252 kts | 344° |
| 2026-05-06 05:03 | 37.53150 | -122.17383 | 3263 ft | 244 kts | 322° |
| 2026-05-06 05:03 | 37.54247 | -122.18956 | 3003 ft | 236 kts | 300° |
| 2026-05-06 05:03 | 37.55062 | -122.20701 | 2693 ft | 225 kts | 298° |
| 2026-05-06 05:04 | 37.55771 | -122.22358 | 2460 ft | 204 kts | 296° |
| 2026-05-06 05:04 | 37.56403 | -122.23876 | 2172 ft | 188 kts | 296° |
| 2026-05-06 05:04 | 37.56987 | -122.25273 | 1922 ft | 172 kts | 296° |
| 2026-05-06 05:04 | 37.57516 | -122.26536 | 1680 ft | 158 kts | 296° |
| 2026-05-06 05:05 | 37.58001 | -122.27692 | 1454 ft | 141 kts | 296° |
| 2026-05-06 05:05 | 37.58454 | -122.28779 | 1320 ft | 141 kts | 296° |
| 2026-05-06 05:05 | 37.58911 | -122.29871 | 1115 ft | 140 kts | 296° |
| 2026-05-06 05:05 | 37.59363 | -122.30951 | 921 ft | 139 kts | 296° |
| 2026-05-06 05:06 | 37.59812 | -122.32029 | 712 ft | 137 kts | 296° |
| 2026-05-06 05:06 | 37.60253 | -122.33086 | 524 ft | 136 kts | 296° |
| 2026-05-06 05:06 | 37.60694 | -122.34145 | 367 ft | 137 kts | 296° |
| 2026-05-06 05:06 | 37.61143 | -122.35212 | 161 ft | 137 kts | 296° |
| 2026-05-06 05:07 | 37.61585 | -122.36261 | 30 ft | 132 kts | 296° |
| 2026-05-06 05:07 | 37.61959 | -122.37159 | 20 ft | 91 kts | 298° |
| 2026-05-06 05:07 | 37.62170 | -122.37661 | 30 ft | 33 kts | 295° |
| 2026-05-06 05:07 | 37.62208 | -122.37896 | 27 ft | 24 kts | 278° |
| 2026-05-06 05:08 | 37.62226 | -122.38078 | 29 ft | 20 kts | 277° |
| 2026-05-06 05:08 | 37.62227 | -122.38241 | 30 ft | 17 kts | 268° |
| 2026-05-06 05:08 | 37.62221 | -122.38387 | 24 ft | 17 kts | 267° |
| 2026-05-06 05:08 | 37.62216 | -122.38508 | 24 ft | 11 kts | 266° |
| 2026-05-06 05:09 | 37.62215 | -122.38592 | 22 ft | 10 kts | 270° |
| 2026-05-06 05:09 | 37.62179 | -122.38634 | 22 ft | 8 kts | 199° |
| 2026-05-06 05:09 | 37.62133 | -122.38597 | 23 ft | 8 kts | 122° |
| 2026-05-06 05:09 | 37.62087 | -122.38555 | 23 ft | 9 kts | 173° |
| 2026-05-06 05:10 | 37.62026 | -122.38583 | 20 ft | 9 kts | 214° |
| 2026-05-06 05:10 | 37.62021 | -122.38643 | 20 ft | 1 kts | 285° |
| 2026-05-06 05:10 | 37.62025 | -122.38651 | 20 ft | 2 kts | 300° |
| 2026-05-06 05:10 | 37.62029 | -122.38658 | 21 ft | 0 kts | 300° |